createdAt,value
2023-04-07T00:00:06.254Z,70.28
2023-04-07T00:00:19.434Z,70.37
2023-04-07T00:00:30.177Z,70.48
2023-04-07T00:00:40.867Z,70.58
2023-04-07T00:00:51.599Z,70.58
2023-04-07T00:01:02.386Z,70.68
2023-04-07T00:01:13.114Z,70.68
2023-04-07T00:01:24.806Z,70.68
2023-04-07T00:01:36.542Z,70.89
2023-04-07T00:01:47.252Z,70.89
2023-04-07T00:01:58.013Z,70.89
2023-04-07T00:02:08.858Z,70.89
2023-04-07T00:02:20.579Z,70.79
2023-04-07T00:02:31.342Z,70.68
2023-04-07T00:02:44.403Z,70.68
2023-04-07T00:02:55.499Z,70.68
2023-04-07T00:03:06.305Z,70.79
2023-04-07T00:03:18.209Z,70.89
2023-04-07T00:03:29.108Z,71.10
2023-04-07T00:03:40.040Z,71.20
2023-04-07T00:03:50.983Z,71.30
2023-04-07T00:04:02.506Z,71.20
2023-04-07T00:04:13.679Z,71.10
2023-04-07T00:04:24.801Z,71.10
2023-04-07T00:04:35.891Z,71.10
2023-04-07T00:04:46.933Z,71.10
2023-04-07T00:04:57.784Z,71.10
2023-04-07T00:05:08.698Z,71.00
2023-04-07T00:05:19.740Z,71.00
2023-04-07T00:05:32.212Z,71.10
2023-04-07T00:05:45.475Z,71.20
2023-04-07T00:05:56.220Z,71.30
2023-04-07T00:06:07.936Z,71.41
2023-04-07T00:06:18.689Z,71.41
2023-04-07T00:06:29.414Z,71.41
2023-04-07T00:06:40.192Z,71.41
2023-04-07T00:06:50.949Z,71.41
2023-04-07T00:07:02.704Z,71.41
2023-04-07T00:07:13.450Z,71.51
2023-04-07T00:07:24.169Z,71.61
2023-04-07T00:07:42.071Z,71.72
2023-04-07T00:07:56.331Z,71.92
2023-04-07T00:08:06.317Z,72.03
2023-04-07T00:08:18.853Z,72.03
2023-04-07T00:08:29.541Z,72.13
2023-04-07T00:08:40.240Z,72.23
2023-04-07T00:08:50.977Z,72.33
2023-04-07T00:09:03.411Z,72.33
2023-04-07T00:09:14.122Z,72.33
2023-04-07T00:09:25.810Z,72.44
2023-04-07T00:09:36.536Z,72.64
2023-04-07T00:09:47.283Z,72.75
2023-04-07T00:09:57.995Z,72.75
2023-04-07T00:10:08.751Z,72.75
2023-04-07T00:10:19.425Z,72.75
2023-04-07T00:10:30.140Z,72.75
2023-04-07T00:10:40.841Z,72.64
2023-04-07T00:10:51.520Z,72.64
2023-04-07T00:11:02.217Z,72.75
2023-04-07T00:11:12.902Z,72.75
2023-04-07T00:11:23.593Z,72.85
2023-04-07T00:11:34.329Z,72.96
2023-04-07T00:11:45.061Z,73.05
2023-04-07T00:11:55.721Z,73.16
2023-04-07T00:12:06.487Z,73.16
2023-04-07T00:12:17.186Z,73.16
2023-04-07T00:12:27.926Z,73.26
2023-04-07T00:12:38.614Z,73.16
2023-04-07T00:12:49.316Z,73.16
2023-04-07T00:13:01.239Z,73.26
2023-04-07T00:13:11.929Z,73.36
2023-04-07T00:13:22.675Z,73.47
2023-04-07T00:13:33.421Z,73.57
2023-04-07T00:13:45.079Z,73.68
2023-04-07T00:13:57.367Z,73.57
2023-04-07T00:14:08.070Z,73.57
2023-04-07T00:14:18.865Z,73.60
2023-04-07T00:14:29.580Z,73.71
2023-04-07T00:14:42.032Z,73.91
2023-04-07T00:14:52.734Z,74.22
2023-04-07T00:15:04.463Z,74.12
2023-04-07T00:15:15.163Z,73.91
2023-04-07T00:15:25.918Z,73.71
2023-04-07T00:15:36.649Z,73.60
2023-04-07T00:15:47.361Z,73.91
2023-04-07T00:16:01.606Z,74.22
2023-04-07T00:16:14.024Z,74.33
2023-04-07T00:16:24.755Z,74.22
2023-04-07T00:16:36.465Z,74.12
2023-04-07T00:16:47.146Z,74.22
2023-04-07T00:16:58.860Z,74.33
2023-04-07T00:17:11.485Z,74.43
2023-04-07T00:17:24.476Z,74.43
2023-04-07T00:17:36.195Z,74.53
2023-04-07T00:17:46.893Z,74.84
2023-04-07T00:17:57.710Z,74.84
2023-04-07T00:18:09.935Z,74.84
2023-04-07T00:18:20.618Z,74.84
2023-04-07T00:18:31.302Z,74.95
2023-04-07T00:18:42.010Z,75.05
2023-04-07T00:18:52.711Z,74.84
2023-04-07T00:19:03.427Z,74.63
2023-04-07T00:19:14.110Z,74.53
2023-04-07T00:19:25.802Z,74.84
2023-04-07T00:19:36.504Z,74.95
2023-04-07T00:19:48.918Z,74.74
2023-04-07T00:19:59.609Z,74.63
2023-04-07T00:20:11.295Z,74.63
2023-04-07T00:20:21.996Z,74.63
2023-04-07T00:20:32.683Z,74.74
2023-04-07T00:20:43.382Z,74.84
2023-04-07T00:20:54.133Z,74.74
2023-04-07T00:21:04.801Z,74.63
2023-04-07T00:21:15.506Z,74.43
2023-04-07T00:21:26.198Z,74.33
2023-04-07T00:21:36.908Z,74.33
2023-04-07T00:21:47.575Z,74.33
2023-04-07T00:21:58.282Z,74.33
2023-04-07T00:22:10.678Z,74.43
2023-04-07T00:22:21.391Z,74.74
2023-04-07T00:22:32.084Z,74.74
2023-04-07T00:22:42.793Z,74.95
2023-04-07T00:22:55.976Z,75.05
2023-04-07T00:23:06.696Z,75.15
2023-04-07T00:23:19.160Z,75.26
2023-04-07T00:23:29.872Z,75.26
2023-04-07T00:23:40.608Z,75.26
2023-04-07T00:23:51.307Z,75.36
2023-04-07T00:24:02.005Z,75.36
2023-04-07T00:24:18.535Z,75.36
2023-04-07T00:24:34.279Z,75.26
2023-04-07T00:24:45.878Z,75.26
2023-04-07T00:24:58.272Z,75.26
2023-04-07T00:25:08.966Z,75.39
2023-04-07T00:25:19.668Z,75.36
2023-04-07T00:25:31.368Z,75.39
2023-04-07T00:25:43.773Z,75.36
2023-04-07T00:25:54.519Z,75.36
2023-04-07T00:26:05.201Z,75.49
2023-04-07T00:26:15.927Z,75.49
2023-04-07T00:26:27.881Z,75.49
2023-04-07T00:26:38.603Z,75.49
2023-04-07T00:26:49.294Z,75.60
2023-04-07T00:27:01.026Z,75.70
2023-04-07T00:27:12.651Z,75.81
2023-04-07T00:27:23.351Z,76.01
2023-04-07T00:27:35.807Z,76.21
2023-04-07T00:27:49.043Z,76.42
2023-04-07T00:28:00.749Z,76.53
2023-04-07T00:28:11.452Z,76.53
2023-04-07T00:28:23.161Z,76.63
2023-04-07T00:28:34.857Z,76.73
2023-04-07T00:28:45.542Z,76.94
2023-04-07T00:28:56.277Z,77.04
2023-04-07T00:29:06.945Z,77.15
2023-04-07T00:29:17.650Z,77.04
2023-04-07T00:29:28.348Z,77.04
2023-04-07T00:29:39.026Z,77.04
2023-04-07T00:29:49.738Z,77.25
2023-04-07T00:30:00.423Z,77.35
2023-04-07T00:30:12.101Z,77.35
2023-04-07T00:30:22.840Z,77.35
2023-04-07T00:30:34.509Z,77.45
2023-04-07T00:30:45.249Z,77.35
2023-04-07T00:30:56.937Z,77.25
2023-04-07T00:31:08.630Z,77.25
2023-04-07T00:31:19.325Z,77.35
2023-04-07T00:31:30.009Z,77.56
2023-04-07T00:31:40.938Z,77.66
2023-04-07T00:31:51.625Z,77.66
2023-04-07T00:32:02.306Z,77.76
2023-04-07T00:32:13.056Z,77.97
2023-04-07T00:32:25.494Z,78.18
2023-04-07T00:32:36.655Z,78.38
2023-04-07T00:32:47.480Z,78.59
2023-04-07T00:32:59.916Z,78.80
2023-04-07T00:33:11.606Z,78.90
2023-04-07T00:33:24.539Z,79.00
2023-04-07T00:33:39.232Z,79.11
2023-04-07T00:33:51.439Z,79.31
2023-04-07T00:34:03.134Z,79.52
2023-04-07T00:34:13.834Z,79.62
2023-04-07T00:34:27.226Z,79.52
2023-04-07T00:34:38.886Z,79.52
2023-04-07T00:34:52.322Z,79.62
2023-04-07T00:35:03.004Z,79.72
2023-04-07T00:35:14.680Z,79.62
2023-04-07T00:35:25.399Z,79.62
2023-04-07T00:35:37.841Z,79.72
2023-04-07T00:35:48.623Z,79.72
2023-04-07T00:35:59.334Z,79.83
2023-04-07T00:36:10.095Z,79.93
2023-04-07T00:36:20.787Z,79.93
2023-04-07T00:36:31.519Z,80.04
2023-04-07T00:36:43.897Z,80.28
2023-04-07T00:36:55.597Z,80.58
2023-04-07T00:37:06.477Z,80.69
2023-04-07T00:37:17.162Z,80.79
2023-04-07T00:37:27.878Z,81.00
2023-04-07T00:37:38.638Z,81.10
2023-04-07T00:37:51.008Z,81.00
2023-04-07T00:38:01.738Z,80.90
2023-04-07T00:38:13.386Z,80.79
2023-04-07T00:38:24.098Z,80.58
2023-04-07T00:38:34.865Z,80.58
2023-04-07T00:38:47.289Z,80.90
2023-04-07T00:38:57.992Z,81.31
2023-04-07T00:39:08.741Z,81.31
2023-04-07T00:39:19.428Z,81.41
2023-04-07T00:39:30.125Z,81.51
2023-04-07T00:39:40.840Z,81.62
2023-04-07T00:39:51.530Z,81.21
2023-04-07T00:40:02.249Z,81.10
2023-04-07T00:40:12.939Z,81.41
2023-04-07T00:40:23.637Z,81.72
2023-04-07T00:40:34.387Z,81.82
2023-04-07T00:40:45.085Z,81.82
2023-04-07T00:40:55.779Z,81.82
2023-04-07T00:41:07.455Z,81.82
2023-04-07T00:41:19.860Z,81.72
2023-04-07T00:41:30.553Z,82.14
2023-04-07T00:41:41.241Z,82.34
2023-04-07T00:41:51.943Z,82.34
2023-04-07T00:42:02.620Z,82.14
2023-04-07T00:42:13.328Z,82.14
2023-04-07T00:42:24.020Z,82.24
2023-04-07T00:42:34.692Z,82.14
2023-04-07T00:42:46.370Z,81.93
2023-04-07T00:42:57.062Z,81.93
2023-04-07T00:43:07.803Z,82.14
2023-04-07T00:43:19.458Z,82.24
2023-04-07T00:43:32.145Z,82.03
2023-04-07T00:43:42.833Z,81.93
2023-04-07T00:43:56.981Z,82.24
2023-04-07T00:44:09.459Z,82.48
2023-04-07T00:44:21.875Z,82.48
2023-04-07T00:44:32.594Z,82.48
2023-04-07T00:44:43.289Z,82.69
2023-04-07T00:44:55.507Z,82.79
2023-04-07T00:45:07.161Z,82.69
2023-04-07T00:45:17.848Z,82.59
2023-04-07T00:45:30.236Z,82.69
2023-04-07T00:45:42.929Z,82.69
2023-04-07T00:45:53.616Z,82.79
2023-04-07T00:46:07.071Z,82.79
2023-04-07T00:46:17.782Z,82.79
2023-04-07T00:46:29.536Z,82.89
2023-04-07T00:46:40.308Z,83.00
2023-04-07T00:46:51.104Z,83.00
2023-04-07T00:47:03.304Z,83.20
2023-04-07T00:47:16.519Z,83.31
2023-04-07T00:47:27.286Z,83.31
2023-04-07T00:47:37.939Z,83.41
2023-04-07T00:47:48.653Z,83.41
2023-04-07T00:47:59.432Z,83.31
2023-04-07T00:48:11.842Z,83.20
2023-04-07T00:48:24.761Z,83.31
2023-04-07T00:48:37.219Z,83.41
2023-04-07T00:48:47.909Z,83.31
2023-04-07T00:49:00.320Z,83.41
2023-04-07T00:49:11.570Z,83.51
2023-04-07T00:49:22.238Z,83.62
2023-04-07T00:49:32.927Z,83.83
2023-04-07T00:49:43.639Z,84.03
2023-04-07T00:49:54.324Z,84.03
2023-04-07T00:50:05.015Z,84.23
2023-04-07T00:50:15.910Z,84.23
2023-04-07T00:50:28.361Z,84.23
2023-04-07T00:50:40.732Z,84.03
2023-04-07T00:50:51.432Z,83.93
2023-04-07T00:51:03.843Z,83.93
2023-04-07T00:51:14.546Z,83.93
2023-04-07T00:51:25.397Z,84.03
2023-04-07T00:51:36.085Z,84.13
2023-04-07T00:51:46.804Z,84.23
2023-04-07T00:51:59.974Z,84.34
2023-04-07T00:52:10.656Z,84.65
2023-04-07T00:52:21.406Z,84.96
2023-04-07T00:52:32.161Z,85.17
2023-04-07T00:52:42.801Z,85.27
2023-04-07T00:52:53.532Z,85.37
2023-04-07T00:53:05.920Z,85.52
2023-04-07T00:53:17.858Z,85.58
2023-04-07T00:53:28.718Z,85.68
2023-04-07T00:53:41.144Z,85.72
2023-04-07T00:53:53.097Z,85.31
2023-04-07T00:54:05.594Z,85.00
2023-04-07T00:54:20.047Z,85.10
2023-04-07T00:54:33.243Z,85.21
2023-04-07T00:54:43.968Z,85.41
2023-04-07T00:54:54.869Z,85.52
2023-04-07T00:55:07.797Z,85.62
2023-04-07T00:55:21.033Z,85.72
2023-04-07T00:55:31.735Z,85.93
2023-04-07T00:55:43.406Z,86.13
2023-04-07T00:55:56.586Z,86.34
2023-04-07T00:56:07.285Z,86.44
2023-04-07T00:56:18.941Z,86.44
2023-04-07T00:56:29.650Z,86.55
2023-04-07T00:56:41.886Z,86.55
2023-04-07T00:56:53.917Z,86.24
2023-04-07T00:57:05.677Z,86.13
2023-04-07T00:57:18.079Z,86.24
2023-04-07T00:57:29.782Z,86.44
2023-04-07T00:57:42.233Z,86.34
2023-04-07T00:57:53.946Z,86.34
2023-04-07T00:58:06.371Z,86.44
2023-04-07T00:58:18.746Z,86.34
2023-04-07T00:58:30.904Z,86.34
2023-04-07T00:58:41.652Z,86.44
2023-04-07T00:58:52.337Z,86.65
2023-04-07T00:59:03.023Z,86.86
2023-04-07T00:59:13.725Z,86.76
2023-04-07T00:59:24.433Z,86.65
2023-04-07T00:59:35.140Z,86.65
2023-04-07T00:59:45.846Z,86.76
2023-04-07T00:59:56.600Z,86.76
2023-04-07T01:00:07.287Z,86.86
2023-04-07T01:00:17.964Z,86.86
2023-04-07T01:00:28.670Z,86.96
2023-04-07T01:00:39.360Z,86.96
2023-04-07T01:00:50.233Z,87.07
2023-04-07T01:01:00.929Z,87.07
2023-04-07T01:01:11.623Z,86.86
2023-04-07T01:01:22.407Z,86.76
2023-04-07T01:01:33.328Z,86.76
2023-04-07T01:01:44.274Z,86.86
2023-04-07T01:01:55.037Z,86.86
2023-04-07T01:02:05.888Z,86.96
2023-04-07T01:02:16.673Z,87.07
2023-04-07T01:02:27.683Z,87.17
2023-04-07T01:02:38.609Z,87.17
2023-04-07T01:02:49.686Z,87.17
2023-04-07T01:03:00.758Z,87.07
2023-04-07T01:03:11.867Z,87.07
2023-04-07T01:03:22.975Z,87.07
2023-04-07T01:03:35.508Z,87.27
2023-04-07T01:03:48.578Z,87.37
2023-04-07T01:03:59.888Z,87.37
2023-04-07T01:04:10.929Z,87.17
2023-04-07T01:04:22.759Z,87.17
2023-04-07T01:04:35.686Z,87.21
2023-04-07T01:04:47.945Z,87.27
2023-04-07T01:05:02.244Z,87.17
2023-04-07T01:05:13.073Z,87.21
2023-04-07T01:05:23.850Z,87.27
2023-04-07T01:05:35.745Z,87.48
2023-04-07T01:05:46.445Z,87.62
2023-04-07T01:05:57.200Z,87.58
2023-04-07T01:06:10.373Z,87.68
2023-04-07T01:06:21.102Z,87.83
2023-04-07T01:06:31.791Z,87.99
2023-04-07T01:06:44.373Z,87.93
2023-04-07T01:06:55.141Z,87.73
2023-04-07T01:07:06.887Z,87.73
2023-04-07T01:07:19.764Z,87.73
2023-04-07T01:07:31.562Z,87.73
2023-04-07T01:07:43.263Z,87.83
2023-04-07T01:07:56.472Z,87.83
2023-04-07T01:08:08.199Z,87.83
2023-04-07T01:08:19.886Z,87.73
2023-04-07T01:08:31.529Z,87.83
2023-04-07T01:08:43.211Z,87.83
2023-04-07T01:08:54.921Z,88.14
2023-04-07T01:09:05.657Z,88.14
2023-04-07T01:09:16.353Z,88.34
2023-04-07T01:09:27.082Z,88.34
2023-04-07T01:09:37.789Z,88.45
2023-04-07T01:09:48.491Z,88.45
2023-04-07T01:09:59.216Z,88.45
2023-04-07T01:10:09.954Z,88.55
2023-04-07T01:10:20.606Z,88.65
2023-04-07T01:10:31.302Z,88.86
2023-04-07T01:10:42.034Z,89.07
2023-04-07T01:10:52.755Z,89.07
2023-04-07T01:11:03.436Z,89.17
2023-04-07T01:11:14.143Z,89.17
2023-04-07T01:11:24.858Z,89.17
2023-04-07T01:11:35.552Z,89.07
2023-04-07T01:11:46.264Z,89.07
2023-04-07T01:11:57.145Z,89.17
2023-04-07T01:12:07.835Z,89.17
2023-04-07T01:12:18.561Z,89.17
2023-04-07T01:12:29.264Z,89.17
2023-04-07T01:12:40.074Z,89.07
2023-04-07T01:12:50.769Z,89.07
2023-04-07T01:13:01.497Z,88.96
2023-04-07T01:13:12.219Z,89.17
2023-04-07T01:13:22.944Z,89.17
2023-04-07T01:13:33.663Z,89.28
2023-04-07T01:13:44.381Z,89.38
2023-04-07T01:13:58.550Z,89.38
2023-04-07T01:14:12.331Z,89.48
2023-04-07T01:14:24.830Z,89.48
2023-04-07T01:14:37.996Z,89.59
2023-04-07T01:14:49.678Z,89.59
2023-04-07T01:15:01.379Z,89.69
2023-04-07T01:15:13.816Z,89.69
2023-04-07T01:15:24.560Z,89.79
2023-04-07T01:15:36.983Z,89.89
2023-04-07T01:15:47.774Z,89.89
2023-04-07T01:16:00.280Z,89.89
2023-04-07T01:16:13.467Z,90.00
2023-04-07T01:16:25.188Z,90.00
2023-04-07T01:16:36.006Z,90.00
2023-04-07T01:16:49.067Z,90.10
2023-04-07T01:17:01.954Z,90.10
2023-04-07T01:17:12.655Z,90.20
2023-04-07T01:17:24.904Z,90.20
2023-04-07T01:17:36.585Z,90.20
2023-04-07T01:17:49.830Z,90.00
2023-04-07T01:18:00.633Z,89.89
2023-04-07T01:18:13.803Z,89.89
2023-04-07T01:18:26.596Z,89.89
2023-04-07T01:18:37.318Z,89.89
2023-04-07T01:18:48.076Z,89.89
2023-04-07T01:19:00.483Z,89.89
2023-04-07T01:19:11.222Z,89.89
2023-04-07T01:19:21.937Z,89.79
2023-04-07T01:19:32.758Z,89.69
2023-04-07T01:19:43.477Z,89.69
2023-04-07T01:19:54.208Z,89.79
2023-04-07T01:20:04.906Z,89.79
2023-04-07T01:20:15.645Z,89.79
2023-04-07T01:20:26.341Z,89.89
2023-04-07T01:20:37.050Z,89.89
2023-04-07T01:20:47.739Z,89.89
2023-04-07T01:20:58.463Z,89.89
2023-04-07T01:21:09.153Z,90.00
2023-04-07T01:21:19.858Z,90.10
2023-04-07T01:21:30.582Z,90.20
2023-04-07T01:21:41.295Z,90.31
2023-04-07T01:21:51.952Z,90.31
2023-04-07T01:22:02.668Z,90.31
2023-04-07T01:22:13.384Z,90.31
2023-04-07T01:22:24.099Z,90.41
2023-04-07T01:22:34.855Z,90.41
2023-04-07T01:22:45.556Z,90.52
2023-04-07T01:22:56.248Z,90.52
2023-04-07T01:23:06.972Z,90.56
2023-04-07T01:23:17.785Z,90.52
2023-04-07T01:23:28.505Z,90.52
2023-04-07T01:23:39.200Z,90.56
2023-04-07T01:23:49.896Z,90.56
2023-04-07T01:24:00.602Z,90.56
2023-04-07T01:24:11.288Z,90.52
2023-04-07T01:24:24.115Z,90.56
2023-04-07T01:24:35.836Z,90.66
2023-04-07T01:24:48.008Z,90.62
2023-04-07T01:25:00.492Z,90.35
2023-04-07T01:25:13.516Z,89.94
2023-04-07T01:25:25.968Z,89.52
2023-04-07T01:25:38.422Z,89.42
2023-04-07T01:25:50.846Z,89.32
2023-04-07T01:26:01.617Z,89.42
2023-04-07T01:26:14.775Z,89.42
2023-04-07T01:26:25.531Z,89.52
2023-04-07T01:26:38.727Z,89.62
2023-04-07T01:26:49.424Z,89.62
2023-04-07T01:27:00.154Z,89.52
2023-04-07T01:27:13.076Z,89.42
2023-04-07T01:27:25.784Z,89.38
2023-04-07T01:27:38.474Z,89.42
2023-04-07T01:27:49.204Z,89.38
2023-04-07T01:27:59.967Z,89.38
2023-04-07T01:28:10.667Z,89.48
2023-04-07T01:28:21.371Z,89.62
2023-04-07T01:28:32.157Z,89.59
2023-04-07T01:28:45.328Z,89.62
2023-04-07T01:28:56.020Z,89.52
2023-04-07T01:29:06.741Z,89.52
2023-04-07T01:29:17.621Z,89.52
2023-04-07T01:29:28.304Z,89.52
2023-04-07T01:29:40.724Z,89.73
2023-04-07T01:29:51.452Z,89.73
2023-04-07T01:30:02.188Z,89.73
2023-04-07T01:30:12.902Z,89.52
2023-04-07T01:30:23.606Z,89.28
2023-04-07T01:30:34.332Z,89.22
2023-04-07T01:30:45.007Z,89.22
2023-04-07T01:30:55.724Z,89.28
2023-04-07T01:31:06.459Z,89.42
2023-04-07T01:31:17.209Z,89.48
2023-04-07T01:31:27.890Z,89.62
2023-04-07T01:31:38.563Z,89.69
2023-04-07T01:31:49.333Z,89.79
2023-04-07T01:32:00.038Z,89.89
2023-04-07T01:32:10.732Z,90.00
2023-04-07T01:32:21.464Z,90.10
2023-04-07T01:32:33.885Z,90.10
2023-04-07T01:32:44.587Z,90.10
2023-04-07T01:32:55.280Z,90.00
2023-04-07T01:33:06.040Z,90.00
2023-04-07T01:33:16.798Z,90.10
2023-04-07T01:33:28.935Z,90.20
2023-04-07T01:33:39.626Z,90.25
2023-04-07T01:33:50.337Z,90.20
2023-04-07T01:34:01.108Z,90.20
2023-04-07T01:34:11.808Z,90.10
2023-04-07T01:34:22.492Z,90.10
2023-04-07T01:34:33.217Z,90.10
2023-04-07T01:34:46.469Z,90.10
2023-04-07T01:34:58.910Z,90.10
2023-04-07T01:35:10.587Z,90.10
2023-04-07T01:35:22.299Z,90.10
2023-04-07T01:35:33.992Z,90.00
2023-04-07T01:35:44.681Z,89.89
2023-04-07T01:35:58.357Z,90.00
2023-04-07T01:36:10.094Z,90.10
2023-04-07T01:36:22.515Z,90.20
2023-04-07T01:36:33.241Z,90.20
2023-04-07T01:36:46.208Z,90.35
2023-04-07T01:36:58.656Z,90.31
2023-04-07T01:37:09.400Z,90.20
2023-04-07T01:37:21.505Z,90.20
2023-04-07T01:37:33.673Z,90.20
2023-04-07T01:37:44.399Z,90.14
2023-04-07T01:37:56.127Z,90.00
2023-04-07T01:38:07.043Z,89.89
2023-04-07T01:38:17.743Z,89.83
2023-04-07T01:38:30.134Z,89.89
2023-04-07T01:38:40.839Z,89.89
2023-04-07T01:38:54.013Z,89.94
2023-04-07T01:39:06.419Z,89.83
2023-04-07T01:39:18.869Z,89.83
2023-04-07T01:39:29.572Z,89.73
2023-04-07T01:39:41.969Z,89.73
2023-04-07T01:39:52.650Z,89.73
2023-04-07T01:40:03.421Z,89.73
2023-04-07T01:40:14.088Z,89.59
2023-04-07T01:40:24.774Z,89.52
2023-04-07T01:40:37.442Z,89.52
2023-04-07T01:40:48.129Z,89.52
2023-04-07T01:40:58.837Z,89.52
2023-04-07T01:41:09.536Z,89.52
2023-04-07T01:41:21.910Z,89.52
2023-04-07T01:41:33.577Z,89.62
2023-04-07T01:41:44.278Z,89.62
2023-04-07T01:41:54.967Z,89.62
2023-04-07T01:42:05.656Z,89.73
2023-04-07T01:42:16.347Z,89.73
2023-04-07T01:42:27.039Z,89.62
2023-04-07T01:42:37.741Z,89.52
2023-04-07T01:42:48.429Z,89.52
2023-04-07T01:43:00.116Z,89.42
2023-04-07T01:43:10.784Z,89.52
2023-04-07T01:43:21.459Z,89.62
2023-04-07T01:43:34.639Z,89.62
2023-04-07T01:43:46.409Z,89.79
2023-04-07T01:43:57.123Z,89.89
2023-04-07T01:44:07.802Z,89.94
2023-04-07T01:44:18.520Z,89.94
2023-04-07T01:44:29.189Z,89.83
2023-04-07T01:44:39.880Z,89.73
2023-04-07T01:44:50.561Z,89.62
2023-04-07T01:45:03.835Z,89.62
2023-04-07T01:45:16.279Z,89.73
2023-04-07T01:45:27.947Z,89.83
2023-04-07T01:45:39.659Z,89.83
2023-04-07T01:45:52.534Z,89.73
2023-04-07T01:46:04.947Z,89.62
2023-04-07T01:46:18.150Z,89.52
2023-04-07T01:46:30.581Z,89.42
2023-04-07T01:46:42.553Z,89.32
2023-04-07T01:46:53.313Z,89.32
2023-04-07T01:47:06.499Z,89.42
2023-04-07T01:47:19.407Z,89.52
2023-04-07T01:47:31.314Z,89.52
2023-04-07T01:47:42.135Z,89.22
2023-04-07T01:47:52.918Z,89.01
2023-04-07T01:48:05.592Z,88.90
2023-04-07T01:48:18.041Z,89.01
2023-04-07T01:48:28.775Z,89.01
2023-04-07T01:48:39.460Z,89.11
2023-04-07T01:48:50.182Z,89.11
2023-04-07T01:49:00.870Z,89.22
2023-04-07T01:49:12.545Z,89.22
2023-04-07T01:49:23.265Z,89.22
2023-04-07T01:49:33.955Z,89.22
2023-04-07T01:49:44.661Z,89.32
2023-04-07T01:49:57.047Z,89.52
2023-04-07T01:50:09.303Z,89.69
2023-04-07T01:50:20.997Z,89.79
2023-04-07T01:50:31.725Z,89.94
2023-04-07T01:50:42.410Z,89.89
2023-04-07T01:50:54.066Z,89.89
2023-04-07T01:51:04.757Z,89.89
2023-04-07T01:51:15.440Z,89.94
2023-04-07T01:51:26.149Z,90.00
2023-04-07T01:51:37.792Z,90.00
2023-04-07T01:51:49.444Z,90.04
2023-04-07T01:52:00.147Z,89.69
2023-04-07T01:52:10.831Z,89.42
2023-04-07T01:52:21.539Z,89.11
2023-04-07T01:52:32.229Z,88.90
2023-04-07T01:52:42.931Z,88.90
2023-04-07T01:52:53.633Z,89.01
2023-04-07T01:53:04.364Z,89.11
2023-04-07T01:53:16.766Z,89.11
2023-04-07T01:53:28.421Z,89.01
2023-04-07T01:53:40.869Z,88.80
2023-04-07T01:53:53.360Z,88.59
2023-04-07T01:54:04.208Z,88.49
2023-04-07T01:54:14.947Z,88.49
2023-04-07T01:54:27.134Z,88.59
2023-04-07T01:54:37.857Z,88.59
2023-04-07T01:54:48.576Z,88.59
2023-04-07T01:54:59.277Z,88.59
2023-04-07T01:55:09.970Z,88.59
2023-04-07T01:55:22.903Z,88.70
2023-04-07T01:55:37.180Z,88.76
2023-04-07T01:55:50.295Z,89.01
2023-04-07T01:56:01.939Z,88.96
2023-04-07T01:56:16.090Z,89.07
2023-04-07T01:56:26.792Z,89.11
2023-04-07T01:56:39.976Z,89.22
2023-04-07T01:56:51.673Z,89.17
2023-04-07T01:57:04.051Z,89.28
2023-04-07T01:57:14.732Z,89.38
2023-04-07T01:57:26.422Z,89.48
2023-04-07T01:57:38.108Z,89.59
2023-04-07T01:57:48.812Z,89.59
2023-04-07T01:57:59.509Z,89.59
2023-04-07T01:58:10.246Z,89.62
2023-04-07T01:58:23.171Z,89.48
2023-04-07T01:58:33.863Z,89.48
2023-04-07T01:58:45.545Z,89.48
2023-04-07T01:58:56.239Z,89.69
2023-04-07T01:59:09.925Z,89.69
2023-04-07T01:59:20.617Z,89.73
2023-04-07T01:59:33.013Z,89.83
2023-04-07T01:59:43.714Z,89.83
2023-04-07T01:59:54.432Z,89.79
2023-04-07T02:00:05.157Z,89.73
2023-04-07T02:00:17.562Z,89.73
2023-04-07T02:00:29.971Z,89.83
2023-04-07T02:00:41.724Z,89.94
2023-04-07T02:00:52.398Z,89.94
2023-04-07T02:01:03.093Z,89.94
2023-04-07T02:01:14.903Z,89.94
2023-04-07T02:01:25.605Z,89.94
2023-04-07T02:01:36.446Z,90.04
2023-04-07T02:01:47.409Z,90.04
2023-04-07T02:01:58.242Z,90.14
2023-04-07T02:02:10.705Z,90.14
2023-04-07T02:02:21.484Z,90.25
2023-04-07T02:02:32.284Z,90.25
2023-04-07T02:02:43.079Z,90.25
2023-04-07T02:02:53.954Z,90.25
2023-04-07T02:03:04.851Z,90.35
2023-04-07T02:03:15.703Z,90.35
2023-04-07T02:03:28.012Z,90.45
2023-04-07T02:03:39.691Z,90.56
2023-04-07T02:03:53.195Z,90.45
2023-04-07T02:04:04.333Z,90.35
2023-04-07T02:04:16.841Z,90.35
2023-04-07T02:04:27.537Z,90.45
2023-04-07T02:04:38.227Z,90.56
2023-04-07T02:04:49.915Z,90.66
2023-04-07T02:05:00.616Z,90.66
2023-04-07T02:05:13.009Z,90.66
2023-04-07T02:05:25.429Z,90.66
2023-04-07T02:05:37.103Z,90.45
2023-04-07T02:05:51.407Z,90.25
2023-04-07T02:06:02.111Z,90.14
2023-04-07T02:06:15.283Z,90.14
2023-04-07T02:06:25.950Z,90.04
2023-04-07T02:06:39.444Z,90.04
2023-04-07T02:06:52.104Z,90.04
2023-04-07T02:07:05.297Z,90.04
2023-04-07T02:07:15.995Z,90.04
2023-04-07T02:07:26.754Z,90.04
2023-04-07T02:07:37.444Z,90.04
2023-04-07T02:07:49.121Z,90.04
2023-04-07T02:08:02.335Z,89.94
2023-04-07T02:08:13.043Z,90.04
2023-04-07T02:08:23.723Z,90.04
2023-04-07T02:08:34.422Z,90.04
2023-04-07T02:08:46.836Z,89.83
2023-04-07T02:08:59.241Z,89.52
2023-04-07T02:09:09.970Z,89.42
2023-04-07T02:09:21.886Z,89.42
2023-04-07T02:09:32.583Z,89.42
2023-04-07T02:09:43.260Z,89.32
2023-04-07T02:09:54.913Z,89.42
2023-04-07T02:10:05.616Z,89.42
2023-04-07T02:10:16.369Z,89.42
2023-04-07T02:10:27.039Z,89.52
2023-04-07T02:10:39.461Z,89.52
2023-04-07T02:10:51.617Z,89.52
2023-04-07T02:11:04.092Z,89.52
2023-04-07T02:11:14.760Z,89.52
2023-04-07T02:11:25.452Z,89.52
2023-04-07T02:11:36.168Z,89.42
2023-04-07T02:11:46.862Z,89.42
2023-04-07T02:11:58.512Z,89.42
2023-04-07T02:12:09.250Z,89.52
2023-04-07T02:12:19.931Z,89.62
2023-04-07T02:12:31.589Z,89.62
2023-04-07T02:12:42.276Z,89.73
2023-04-07T02:12:52.966Z,89.73
2023-04-07T02:13:03.680Z,89.73
2023-04-07T02:13:14.355Z,89.73
2023-04-07T02:13:25.052Z,89.83
2023-04-07T02:13:35.823Z,89.94
2023-04-07T02:13:46.554Z,89.94
2023-04-07T02:13:57.248Z,89.94
2023-04-07T02:14:07.952Z,89.94
2023-04-07T02:14:20.115Z,90.04
2023-04-07T02:14:30.807Z,90.14
2023-04-07T02:14:41.479Z,90.14
2023-04-07T02:14:53.179Z,90.25
2023-04-07T02:15:05.584Z,90.35
2023-04-07T02:15:17.726Z,90.35
2023-04-07T02:15:31.157Z,90.45
2023-04-07T02:15:41.856Z,90.45
2023-04-07T02:15:52.563Z,90.45
2023-04-07T02:16:04.297Z,90.45
2023-04-07T02:16:17.044Z,90.35
2023-04-07T02:16:29.445Z,90.35
2023-04-07T02:16:41.925Z,90.35
2023-04-07T02:16:55.142Z,90.45
2023-04-07T02:17:05.826Z,90.35
2023-04-07T02:17:18.484Z,90.45
2023-04-07T02:17:30.715Z,90.45
2023-04-07T02:17:41.413Z,90.45
2023-04-07T02:17:54.658Z,90.25
2023-04-07T02:18:08.402Z,90.04
2023-04-07T02:18:22.070Z,89.73
2023-04-07T02:18:32.811Z,89.52
2023-04-07T02:18:43.493Z,89.42
2023-04-07T02:18:54.226Z,89.32
2023-04-07T02:19:05.084Z,89.32
2023-04-07T02:19:15.772Z,89.32
2023-04-07T02:19:26.478Z,89.38
2023-04-07T02:19:37.174Z,89.28
2023-04-07T02:19:49.832Z,89.38
2023-04-07T02:20:00.528Z,89.38
2023-04-07T02:20:12.933Z,89.38
2023-04-07T02:20:23.629Z,89.38
2023-04-07T02:20:36.033Z,89.48
2023-04-07T02:20:46.730Z,89.48
2023-04-07T02:20:59.131Z,89.48
2023-04-07T02:21:11.551Z,89.59
2023-04-07T02:21:24.082Z,89.59
2023-04-07T02:21:34.741Z,89.59
2023-04-07T02:21:45.471Z,89.69
2023-04-07T02:21:57.208Z,89.69
2023-04-07T02:22:07.909Z,89.69
2023-04-07T02:22:18.592Z,89.59
2023-04-07T02:22:29.283Z,89.38
2023-04-07T02:22:39.957Z,89.28
2023-04-07T02:22:52.344Z,89.07
2023-04-07T02:23:03.035Z,89.07
2023-04-07T02:23:14.702Z,89.17
2023-04-07T02:23:25.418Z,89.28
2023-04-07T02:23:36.132Z,89.28
2023-04-07T02:23:46.801Z,89.28
2023-04-07T02:23:57.686Z,89.28
2023-04-07T02:24:09.465Z,89.28
2023-04-07T02:24:21.896Z,89.38
2023-04-07T02:24:32.564Z,89.48
2023-04-07T02:24:43.323Z,89.59
2023-04-07T02:24:55.757Z,89.59
2023-04-07T02:25:06.427Z,89.59
2023-04-07T02:25:17.144Z,89.59
2023-04-07T02:25:27.846Z,89.69
2023-04-07T02:25:39.571Z,89.69
2023-04-07T02:25:51.214Z,89.59
2023-04-07T02:26:02.894Z,89.38
2023-04-07T02:26:13.569Z,89.28
2023-04-07T02:26:26.025Z,89.17
2023-04-07T02:26:37.720Z,89.28